Ride Results

LoVERS (02-06-2018)
Ride distance: 80.0 km

Outcomes - LoVERS (02-06-2018)
Division No. of Entries Retired / DNE Completed Withdrawn Ineligible V/O Percentage Completed
HW 16 - 13 - - 3 81.25%
MW 33 - 26 3 - 4 78.79%
LW 33 - 29 1 - 3 87.88%
JN 21 - 19 - - 2 90.48%
Totals 103 - 87 4 - 12 84.47%
Results - LoVERS (02-06-2018)
No. Rider Horse Place Time Leg Speeds Total
Km/Hr
H/R bpm
Heavyweight
46 Greg Lyon Chingford Just Dreaming 1 (BC) 4:46:20 18.1, 15.2 16.76 30, 39, 42 (Avg:40)
65 Peter Casey Rodborough Amaaya 2 5:24:00 15.5, 13.9 14.81 42, 41, 46 (Avg:43)
36 Daniel Williams Edenfels Pegasus 3 6:07:00 13.5, 12.5 13.08 32, 43, 48 (Avg:45)
43 Matthew Gadsby Maximus Ra 4 6:18:00 14.6, 10.8 12.70 31, 42, 43 (Avg:42)
87 Craig Renner Edenfels M J 4 6:18:00 13.2, 12.0 12.70 31, 55, 49 (Avg:52)
73 Tami Parnell Neularapark Prince Horatio 6 6:32:00 12.6, 11.7 12.24 37, 48, 49 (Avg:48)
34 Doug Dart Cameo Moon River 7 6:35:00 11.8, 12.5 12.15 33, 38, 46 (Avg:42)
52 Jago Blonde Arabec Wolveriine 8 6:39:00 11.7, 12.4 12.03 34, 43, 52 (Avg:47)
81 Andrea Nix Rowallan Rufous 9 7:02:00 11.2, 11.5 11.37 35, 43, 50 (Avg:46)
2 Troy Butler Ranek Dakota 10 7:08:00 11.9, 10.3 11.21 34, 50, 47 (Avg:48)
17 Aaron Dymock Sheik 11 7:18:00 11.1, 10.7 10.96 32, 41, 43 (Avg:42)
40 Sam Collins Rodborough Ausabi 12 7:33:00 10.8, 10.3 10.60 28, 48, 44 (Avg:46)
45 Tracy Kirby Timbertop Little Miss Princess 13 8:10:00 10.2, 9.2 9.80 36, 43, 52 (Avg:47)
69 Mark Nimon Abbeywood Cochise Lame L2 4:54:00 16.4, 16.1 16.33 35, 42, 45 (Avg:43)
60 Gary Surch Ramalea Phantom Lame L2 6:32:00 13.3, 11.1 12.24 35, 42, 50 (Avg:46)
91 Elizabeth Piggott Rosevale Park Sport Lame L2 8:15:00 9.7, 9.6 9.70 37, 42, 59 (Avg:50)
Middleweight
7 Leah Robertson Diamond T Shakil Silver City 1 4:46:00 17.8, 15.5 16.78 36, 42, 42 (Avg:42)
76 Brook Sample Brookleigh Dylan 2 4:46:20 16.2, 17.4 16.76 33, 39, 45 (Avg:42)
3 Steve Gray Sir Avatar 3 (BC) 5:04:00 14.6, 17.4 15.79 30, 34, 36 (Avg:35)
84 Danielle Kendall Julian te 4 5:24:00 14.5, 15.2 14.81 31, 41, 43 (Avg:42)
83 Penny Toft Beaudacious te 4 5:24:00 14.5, 15.2 14.81 31, 42, 43 (Avg:42)
18 Leanne McLaughlin Ramalea Petria 6 6:04:00 13.2, 13.1 13.19 36, 40, 45 (Avg:42)
86 Billie Barron Little Pebbles 7 6:07:00 13.5, 12.5 13.08 42, 44, 48 (Avg:46)
82 Jo Barsby Dumaresq Platinum 8 6:13:00 13.5, 12.1 12.87 34, 42, 41 (Avg:41)
5 Virginia Barber Shanti 9 6:16:00 13.5, 11.8 12.77 36, 47, 57 (Avg:52)
54 Stephanie Malmborg Wattle Tree Amir 10 6:17:00 12.7, 12.6 12.73 40, 45, 55 (Avg:50)
67 Renee Kirk Garnee Full Throttle 11 6:18:00 14.6, 10.8 12.70 42, 48, 59 (Avg:53)
12 David Cleland Arthur 12 6:22:00 12.7, 12.3 12.57 35, 46, 52 (Avg:49)
58 Fiona Fenech Abberlyn Park Alivia 13 6:27:00 12.2, 12.5 12.40 38, 35, 40 (Avg:37)
61 Phoebe Wilson Ramalea Jedah 14 6:32:00 13.3, 11.1 12.24 36, 47, 50 (Avg:48)
24 Donna Brooker Merlin GG 15 6:39:00 12.3, 11.6 12.03 48, 46, 49 (Avg:47)
28 Karen Lee Markus Romulus 16 6:57:00 12.4, 10.4 11.51 35, 45, 50 (Avg:47)
32 Debra Minto Chika Canela 16 6:57:00 12.4, 10.4 11.51 36, 42, 49 (Avg:45)
15 Corey Nix Macrocarpa Red Bull 18 7:02:00 11.1, 11.7 11.37 48, 47, 51 (Avg:49)
9 Jill Free Kadar Silkk 19 7:04:00 11.4, 11.1 11.32 33, 36, 42 (Avg:39)
10 Kaylyn Free Blue Beatson 19 7:04:00 11.4, 11.1 11.32 30, 45, 45 (Avg:45)
31 Liz Kirk Drumlin Moonstrike 19 7:04:00 11.4, 11.1 11.32 34, 37, 42 (Avg:39)
14 Kathy Drew Warrawee A'Bandom 22 7:10:00 12.7, 9.6 11.16 37, 38, 40 (Avg:39)
35 Sherry Lowe El-Masri Nadeem 23 7:11:00 11.2, 10.9 11.14 36, 41, 50 (Avg:45)
88 Lexi Morton Arny's Bad Moon Arisin 24 7:22:00 12.3, 9.3 10.86 33, 47, 54 (Avg:50)
49 Lilly Rolfe Bara Park Miricle Man 25 7:30:00 10.5, 10.8 10.67 34, 40, 44 (Avg:42)
42 Joy Craig Zameel Rafiq 26 8:10:00 10.2, 9.2 9.80 32, 40, 51 (Avg:45)
90 Erin Van Itallie Rosevale Park Jaakana Heart Rate L2 8:15:00 9.7, 9.6 9.70 46, 50, 63 (Avg:56)
21 Kane Kelso S'Shaada Kaiwan Lame L1 2:44:00 16.4 16.46 37, 51 (Avg:51)
16 Yvonne Hain Cash N Bonds Lame L1 3:56:00 11.4 11.44 31, 44 (Avg:44)
80 Derryn Nix Homeleigh Mountain Nazeem Widthdrawn L1 4:00:00 - 11.25 28, 34 (Avg:34)
8 Donna Pearce Donrich Pride Of Kadoo Sultan Lame L1 4:11:00 10.7 10.76 40, 40 (Avg:40)
77 Rosemary Hull Box Hill Nitro Widthdrawn L1 4:38:00 - 9.71 32, 45 (Avg:45)
66 Renee Kirk Garnee Viper Widthdrawn P/R 0:00:00 - - 33
Lightweight
22 Renee Kelso Bonnie Doon Ashquar 1 (BC) 4:37:24 18.1, 16.3 17.30 36, 44, 48 (Avg:46)
23 Ute Jordan Glenewan Blitz 2 4:46:20 18.1, 15.2 16.76 36, 42, 48 (Avg:45)
38 Janelle Taylor Glenewan Scout 2 4:46:20 18.1, 15.2 16.76 37, 45, 48 (Avg:46)
37 Shelley Chapman Cameo Bizmarck 4 4:54:00 16.4, 16.1 16.33 30, 47, 46 (Avg:46)
19 Emilie Jensen Monster Energy 5 4:58:00 14.8, 18.1 16.11 31, 44, 49 (Avg:46)
1 Emma Shone Brookleigh Ferris 6 5:04:00 14.7, 17.3 15.79 33, 42, 51 (Avg:46)
89 Xanthe Webb Keiko Kashmir Sapphire 7 6:07:00 13.5, 12.5 13.08 37, 43, 49 (Avg:46)
11 Candice Gurtner Aloha Party Girl 8 6:13:00 13.4, 12.2 12.87 32, 39, 38 (Avg:38)
44 Mindy Davies Aphrodite Malakia 9 6:18:00 14.6, 10.8 12.70 31, 40, 42 (Avg:41)
79 Tash Willemse Hillbrae Alec 10 6:20:00 13.2, 11.9 12.63 31, 40, 56 (Avg:48)
78 Johann Willemse Lailarni Jewel 10 6:20:00 13.2, 11.9 12.63 36, 43, 41 (Avg:42)
6 Karen Fields Centreline Empire 12 6:23:00 12.7, 12.2 12.53 34, 47, 46 (Avg:46)
4 Sabrina Stephens Cameo Cinderella 12 6:23:00 12.7, 12.2 12.53 36, 42, 43 (Avg:42)
75 Tracey Hutchinson Woodbourne Wednesday 14 6:32:00 12.6, 11.7 12.24 36, 39, 46 (Avg:42)
62 Isabella Teh Gundiwidgee Legolas 14 6:32:00 13.3, 11.1 12.24 30, 44, 44 (Avg:44)
33 Meleita Dart Gazal El Adien 16 6:35:00 11.8, 12.5 12.15 31, 31, 39 (Avg:35)
25 Sammie Brooker Hirstglen Zeus 17 6:39:00 12.3, 11.6 12.03 37, 44, 49 (Avg:46)
27 Sharn Brooker Hirstglen Texas Rose 17 6:39:00 12.3, 11.6 12.03 32, 41, 48 (Avg:44)
50 Heather Parry Flemingo Bombastic 17 6:39:00 11.7, 12.4 12.03 36, 43, 59 (Avg:51)
64 Kaylea Maher Rivergum Diplomat 20 6:59:00 11.0, 11.9 11.46 34, 40, 50 (Avg:45)
63 Essy Mountford Awarran Park Rose Majesty 20 6:59:00 11.0, 11.9 11.46 31, 41, 46 (Avg:43)
70 Renae Chapman Brookleigh Jumeirah 22 7:01:00 11.2, 11.6 11.40 32, 39, 43 (Avg:41)
72 Anne-Lise Lecerf Gheerulla Asterix 22 7:01:00 11.2, 11.6 11.40 34, 43, 40 (Avg:41)
13 Ashleigh Grassick Dunbar Caspian 24 7:17:00 11.6, 10.2 10.98 36, 39, 46 (Avg:42)
47 Hannah Archer Lawton Flemingo Bomsaway 25 7:30:00 10.5, 10.8 10.67 30, 43, 53 (Avg:48)
48 Clare Fleming Flemingo Aragon 25 7:30:00 10.5, 10.8 10.67 42, 50, 59 (Avg:54)
55 Brittney McInnes Zenith Park Qadir 27 7:32:00 10.8, 10.3 10.62 33, 40, 45 (Avg:42)
56 Amanda Powell Jezabelle Jesse James 27 7:32:00 10.8, 10.3 10.62 35, 39, 42 (Avg:40)
20 Jorja McInnes Splendacrest Zafire 29 7:33:00 10.7, 10.4 10.60 28, 29, 32 (Avg:30)
57 Narelle Childs Maxwell Staccato Lame L1 2:57:00 15.2 15.25 36, 42 (Avg:42)
85 Georgia Smith Wallaby Jones te Lame L1 3:21:00 13.4 13.43 32, 41 (Avg:41)
39 Karen Trundell Psacha Widthdrawn L1 (Rep) 4:10:00 - 10.80 34, 41, 40, 0 (Avg:27)
71 Leigh Ann Sample Brookleigh Gandalf Lame P/R 0:00:00 - - 38
Junior
212 Scarlet McQueen Elfar Kaspa 1 (BC) 4:37:00 18.1, 16.4 17.33 35, 43, 48 (Avg:45)
218 Zac Sample Brookleigh Milo 2 4:46:20 16.2, 17.4 16.76 40, 45, 48 (Avg:46)
239 Christopher Benstead Rosevale Park Angelo 3 4:46:50 14.8, 20.0 16.73 33, 42, 46 (Avg:44)
216 Molly Choyce Abberlyn Park Astanna 4 4:58:00 14.8, 18.1 16.11 32, 42, 41 (Avg:41)
231 Lexi Webb Envious te 5 6:07:00 13.5, 12.5 13.08 30, 36, 32 (Avg:34)
209 Chloe Bolliger Ramalea Samantha 6 6:09:00 13.2, 12.7 13.01 34, 36, 44 (Avg:40)
202 Georgie Barber Jayhal Jumanah 7 6:16:00 13.5, 11.8 12.77 38, 48, 51 (Avg:49)
219 Charlize Renner Edenfels Crystal Kaz 8 6:17:00 13.2, 12.1 12.73 30, 38, 40 (Avg:39)
215 Sage Weale Wattle Tree Bhadra 8 6:17:00 12.7, 12.6 12.73 36, 41, 41 (Avg:41)
217 Cameron Lee Bellarine Passiona 10 6:27:00 12.2, 12.5 12.40 38, 36, 40 (Avg:38)
207 Talyn Nix Razorback Sugar N Spice 11 6:35:00 11.6, 12.8 12.15 34, 43, 43 (Avg:43)
208 Sanjay Nix Castlebar Consort 12 7:02:00 11.1, 11.7 11.37 37, 42, 45 (Avg:43)
201 Paige Butler Revere Shalee 13 7:08:00 11.9, 10.3 11.21 38, 41, 41 (Avg:41)
206 Georgia Drew La Battist Oliver Twist 14 7:10:00 12.7, 9.6 11.16 33, 41, 60 (Avg:50)
211 Maeve Paten Larntainey Silver Treasure 15 7:11:00 11.2, 10.9 11.14 33, 41, 48 (Avg:44)
220 Georgia Morton Mt Eerwah Silver Mariner 16 7:22:00 12.3, 9.3 10.86 30, 41, 52 (Avg:46)
214 Miranda Hodges Fireworks Mi 17 7:30:00 10.5, 10.8 10.67 36, 44, 48 (Avg:46)
210 Charlotte Williamson Holly Hill's Billy Boy 18 7:33:00 10.7, 10.4 10.60 36, 41, 48 (Avg:44)
213 Lachlan Harris Zara Farm Zena 19 8:10:00 10.2, 9.2 9.80 28, 39, 45 (Avg:42)
203 Ben Hoey Pocket Rocket Patience Lame L2 5:07:00 14.8, 16.7 15.64 32, 43, 47 (Avg:45)
204 Tamara Gibson Dunbar Magnolia Lame L2 7:17:00 11.6, 10.2 10.98 31, 37, 37 (Avg:37)